Time;durP1;ratioP1;P1;durP2;ratioP2;P2;SDS_P1;SDS_P2;PMS_P1;PMS_P2;Temp;Humidity;BMP_temperature;BMP_pressure;BME280_temperature;BME280_humidity;BME280_pressure;Samples;Min_cycle;Max_cycle;Signal;HPM_P1;HPM_P2
2023/11/02 00:00:34;;;;;;;1.55;1.30;;;;;;;;;;5055984;28;20217;-82
2023/11/02 00:03:00;;;;;;;2.30;1.17;;;;;;;;;;5056062;28;20185;-83
2023/11/02 00:05:45;;;;;;;3.35;1.58;;;;;;;;;;5056883;28;20185;-82
2023/11/02 00:08:11;;;;;;;6.50;1.55;;;;;;;;;;5055909;28;20209;-82
2023/11/02 00:10:38;;;;;;;2.55;1.35;;;;;;;;;;5055973;28;20566;-83
2023/11/02 00:13:05;;;;;;;5.45;1.40;;;;;;;;;;5055974;28;20342;-81
2023/11/02 00:15:31;;;;;;;2.70;1.35;;;;;;;;;;5057045;28;20529;-83
2023/11/02 00:18:01;;;;;;;2.80;1.50;;;;;;;;;;5057502;28;20544;-82
2023/11/02 00:20:31;;;;;;;3.33;1.50;;;;;;;;;;5055644;28;20199;-81
2023/11/02 00:22:57;;;;;;;7.85;1.27;;;;;;;;;;5020053;28;20189;-83
2023/11/02 00:25:40;;;;;;;2.63;1.20;;;;;;;;;;5036644;28;20209;-80
2023/11/02 00:28:08;;;;;;;3.38;1.30;;;;;;;;;;5037064;28;20297;-83
2023/11/02 00:30:39;;;;;;;1.40;1.30;;;;;;;;;;5036254;28;20680;-78
2023/11/02 00:33:05;;;;;;;4.05;1.10;;;;;;;;;;5036199;28;20162;-84
2023/11/02 00:35:32;;;;;;;4.27;1.00;;;;;;;;;;5035246;28;20188;-83
2023/11/02 00:37:58;;;;;;;2.20;1.00;;;;;;;;;;5036959;28;20793;-79
2023/11/02 00:40:24;;;;;;;5.78;1.30;;;;;;;;;;5035210;28;20289;-84
2023/11/02 00:42:51;;;;;;;5.15;0.90;;;;;;;;;;5038983;28;20235;-83
2023/11/02 00:45:17;;;;;;;6.70;1.30;;;;;;;;;;5054663;28;20303;-83
2023/11/02 00:47:43;;;;;;;2.20;1.05;;;;;;;;;;5056330;28;20212;-85
2023/11/02 00:50:30;;;;;;;3.65;1.10;;;;;;;;;;5054802;28;20259;-84
2023/11/02 00:52:56;;;;;;;2.38;1.15;;;;;;;;;;5044650;28;20193;-84
2023/11/02 00:55:36;;;;;;;2.43;0.80;;;;;;;;;;5038528;28;20185;-85
2023/11/02 00:58:11;;;;;;;2.58;1.20;;;;;;;;;;5055797;28;20403;-81
2023/11/02 01:00:53;;;;;;;5.13;1.27;;;;;;;;;;5055464;28;20225;-85
2023/11/02 01:03:22;;;;;;;7.38;1.10;;;;;;;;;;5054612;28;20180;-85
2023/11/02 01:05:49;;;;;;;7.53;1.23;;;;;;;;;;5055695;28;20172;-85
2023/11/02 01:08:15;;;;;;;2.95;1.05;;;;;;;;;;5045313;28;20221;-85
2023/11/02 01:10:41;;;;;;;2.70;1.00;;;;;;;;;;5034667;28;20178;-82
2023/11/02 01:13:10;;;;;;;3.38;0.95;;;;;;;;;;5038890;28;20233;-85
2023/11/02 01:15:45;;;;;;;4.05;1.65;;;;;;;;;;5055959;28;20264;-83
2023/11/02 01:18:11;;;;;;;2.95;1.13;;;;;;;;;;5054105;28;20196;-84
2023/11/02 01:20:43;;;;;;;4.63;1.10;;;;;;;;;;5054271;28;20265;-86
2023/11/02 01:23:09;;;;;;;1.90;1.30;;;;;;;;;;5053931;28;20212;-84
2023/11/02 01:25:41;;;;;;;4.20;1.40;;;;;;;;;;5055861;28;20174;-85
2023/11/02 01:28:07;;;;;;;2.25;1.35;;;;;;;;;;5053725;28;20695;-84
2023/11/02 01:30:33;;;;;;;2.70;1.15;;;;;;;;;;5053949;28;20200;-85
2023/11/02 01:32:59;;;;;;;8.37;1.47;;;;;;;;;;5055495;28;20208;-86
2023/11/02 01:35:41;;;;;;;4.88;1.10;;;;;;;;;;5054730;28;20410;-85
2023/11/02 01:38:07;;;;;;;3.58;1.13;;;;;;;;;;5054950;28;20247;-83
2023/11/02 01:40:43;;;;;;;1.27;0.80;;;;;;;;;;5037996;28;20193;-83
2023/11/02 01:49:20;;;;;;;8.15;1.15;;;;;;;;;;5055064;28;20176;-84
2023/11/02 01:51:56;;;;;;;8.52;1.08;;;;;;;;;;5054318;28;20174;-85
2023/11/02 01:54:34;;;;;;;1.75;0.90;;;;;;;;;;5055314;28;20248;-85
2023/11/02 01:57:03;;;;;;;7.07;1.48;;;;;;;;;;5038201;28;20178;-85
2023/11/02 01:59:48;;;;;;;2.00;1.00;;;;;;;;;;5033147;28;20249;-85
2023/11/02 02:02:15;;;;;;;6.82;1.45;;;;;;;;;;5033910;28;20186;-85
2023/11/02 02:04:41;;;;;;;3.75;2.03;;;;;;;;;;5034247;28;20270;-82
2023/11/02 02:07:20;;;;;;;3.50;1.30;;;;;;;;;;5035492;28;20229;-84
2023/11/02 02:09:46;;;;;;;2.92;1.10;;;;;;;;;;5033658;28;20884;-83
2023/11/02 02:12:12;;;;;;;6.30;1.10;;;;;;;;;;5034118;28;20228;-83
2023/11/02 02:14:38;;;;;;;5.50;1.30;;;;;;;;;;5034934;28;20174;-85
2023/11/02 02:17:10;;;;;;;7.23;2.17;;;;;;;;;;5034968;28;20192;-83
2023/11/02 02:19:43;;;;;;;6.47;1.88;;;;;;;;;;5053622;28;20773;-83
2023/11/02 02:22:11;;;;;;;2.45;1.10;;;;;;;;;;5053419;28;20181;-83
2023/11/02 02:24:41;;;;;;;2.13;0.95;;;;;;;;;;5054234;28;20174;-79
2023/11/02 02:27:09;;;;;;;3.30;1.17;;;;;;;;;;5055284;28;20221;-84
2023/11/02 02:30:00;;;;;;;3.95;1.52;;;;;;;;;;5053431;28;20217;-83
2023/11/02 02:32:36;;;;;;;6.05;1.20;;;;;;;;;;5053277;28;20173;-83
2023/11/02 02:35:07;;;;;;;11.20;1.10;;;;;;;;;;5054427;28;20161;-85
2023/11/02 02:37:35;;;;;;;3.75;1.08;;;;;;;;;;5051839;28;20185;-83
2023/11/02 02:40:06;;;;;;;3.78;1.10;;;;;;;;;;5046757;28;20204;-84
2023/11/02 02:42:35;;;;;;;3.83;1.25;;;;;;;;;;5054556;28;20177;-84
2023/11/02 02:45:02;;;;;;;6.15;1.73;;;;;;;;;;5054149;28;20173;-82
2023/11/02 02:47:28;;;;;;;2.80;1.02;;;;;;;;;;5053312;28;20205;-84
2023/11/02 02:49:54;;;;;;;6.57;1.45;;;;;;;;;;5036867;28;20717;-81
2023/11/02 02:52:22;;;;;;;3.50;1.23;;;;;;;;;;5036351;28;20185;-84
2023/11/02 02:54:50;;;;;;;4.70;1.40;;;;;;;;;;5053706;28;20186;-84
2023/11/02 02:57:17;;;;;;;4.70;1.20;;;;;;;;;;5053710;28;20536;-78
2023/11/02 02:59:49;;;;;;;2.88;1.40;;;;;;;;;;5053496;28;20186;-84
2023/11/02 03:02:16;;;;;;;5.03;1.38;;;;;;;;;;5054516;28;20169;-85
2023/11/02 03:04:44;;;;;;;4.78;1.38;;;;;;;;;;5054077;28;20178;-84
2023/11/02 03:07:12;;;;;;;3.95;1.30;;;;;;;;;;5052880;28;20232;-79
2023/11/02 03:09:39;;;;;;;4.45;1.20;;;;;;;;;;5053190;28;20181;-86
2023/11/02 03:12:07;;;;;;;5.15;1.60;;;;;;;;;;5053771;28;20537;-85
2023/11/02 03:14:35;;;;;;;6.80;1.17;;;;;;;;;;5052565;28;20181;-85
2023/11/02 03:17:07;;;;;;;3.35;1.17;;;;;;;;;;5052728;28;20645;-86
2023/11/02 03:19:47;;;;;;;3.55;1.52;;;;;;;;;;5053374;28;20854;-80
2023/11/02 03:22:15;;;;;;;3.35;1.10;;;;;;;;;;5052934;28;20194;-83
2023/11/02 03:24:50;;;;;;;4.72;1.27;;;;;;;;;;5054531;28;20529;-83
2023/11/02 03:27:22;;;;;;;3.10;1.45;;;;;;;;;;5053565;28;20208;-79
2023/11/02 03:30:14;;;;;;;4.72;1.40;;;;;;;;;;5058833;28;20170;-85
2023/11/02 03:32:50;;;;;;;5.13;1.55;;;;;;;;;;5023357;28;20194;-80
2023/11/02 03:35:23;;;;;;;8.68;1.77;;;;;;;;;;5016966;28;20528;-83
2023/11/02 03:38:22;;;;;;;3.40;1.27;;;;;;;;;;5018446;28;20171;-81
2023/11/02 03:40:50;;;;;;;3.95;1.35;;;;;;;;;;5044638;28;20266;-81
2023/11/02 03:43:26;;;;;;;4.35;1.40;;;;;;;;;;5057242;28;20174;-81
2023/11/02 03:46:14;;;;;;;5.05;1.20;;;;;;;;;;5056831;28;20251;-79
2023/11/02 03:48:45;;;;;;;6.40;1.63;;;;;;;;;;5058394;28;20193;-83
2023/11/02 03:51:34;;;;;;;3.63;1.65;;;;;;;;;;5057633;28;20550;-79
2023/11/02 03:54:03;;;;;;;1.52;1.00;;;;;;;;;;5055178;28;20193;-78
2023/11/02 03:56:52;;;;;;;2.70;1.10;;;;;;;;;;5059295;28;20568;-78
2023/11/02 03:59:23;;;;;;;3.65;1.38;;;;;;;;;;5058860;28;20176;-80
2023/11/02 04:02:20;;;;;;;2.70;1.42;;;;;;;;;;5057532;28;20247;-80
2023/11/02 04:04:47;;;;;;;4.68;1.30;;;;;;;;;;5053143;28;20223;-81
2023/11/02 04:07:22;;;;;;;3.13;1.27;;;;;;;;;;5058133;28;20201;-81
2023/11/02 04:09:55;;;;;;;3.10;1.05;;;;;;;;;;5053075;28;20592;-81
2023/11/02 04:12:24;;;;;;;2.35;0.93;;;;;;;;;;5036570;28;20181;-79
2023/11/02 04:14:51;;;;;;;3.95;1.67;;;;;;;;;;5037902;28;20232;-83
2023/11/02 04:17:19;;;;;;;3.80;1.05;;;;;;;;;;5037806;28;20583;-82
2023/11/02 04:19:45;;;;;;;3.17;1.30;;;;;;;;;;5037823;28;20237;-82
2023/11/02 04:22:11;;;;;;;4.97;1.37;;;;;;;;;;5037105;28;20182;-81
2023/11/02 04:24:37;;;;;;;2.55;1.20;;;;;;;;;;5036983;28;20500;-79
2023/11/02 04:27:03;;;;;;;2.50;1.20;;;;;;;;;;5020117;28;20198;-82
2023/11/02 04:29:30;;;;;;;3.03;1.03;;;;;;;;;;5035630;28;20417;-82
2023/11/02 04:31:56;;;;;;;2.70;0.93;;;;;;;;;;5036665;28;20405;-80
2023/11/02 04:34:22;;;;;;;1.63;1.02;;;;;;;;;;5038042;28;20174;-76
2023/11/02 04:36:48;;;;;;;1.83;1.10;;;;;;;;;;5037202;28;20284;-79
2023/11/02 04:39:14;;;;;;;4.70;1.27;;;;;;;;;;5037106;28;20440;-77
2023/11/02 04:41:40;;;;;;;5.75;0.90;;;;;;;;;;5036816;28;20170;-77
2023/11/02 04:44:06;;;;;;;2.20;0.80;;;;;;;;;;5038533;28;20205;-77
2023/11/02 04:46:32;;;;;;;2.17;0.90;;;;;;;;;;5037274;28;20461;-76
2023/11/02 04:48:58;;;;;;;3.50;1.40;;;;;;;;;;5038285;28;20561;-77
2023/11/02 04:51:24;;;;;;;2.53;1.00;;;;;;;;;;5036101;28;20432;-76
2023/11/02 04:53:50;;;;;;;4.00;1.10;;;;;;;;;;5036877;28;20504;-77
2023/11/02 04:56:19;;;;;;;2.17;0.93;;;;;;;;;;5021112;28;20428;-76
2023/11/02 04:58:45;;;;;;;3.20;1.10;;;;;;;;;;5038440;28;20412;-76
2023/11/02 05:01:11;;;;;;;5.40;1.10;;;;;;;;;;5036367;28;20320;-75
2023/11/02 05:03:37;;;;;;;2.37;1.10;;;;;;;;;;5038263;28;20198;-76
2023/11/02 05:06:03;;;;;;;3.60;1.07;;;;;;;;;;5037382;28;20412;-76
2023/11/02 05:08:29;;;;;;;2.45;1.00;;;;;;;;;;5038114;28;20463;-76
2023/11/02 05:10:55;;;;;;;4.50;1.10;;;;;;;;;;5038774;28;20599;-76
2023/11/02 05:13:21;;;;;;;2.65;1.00;;;;;;;;;;5047425;28;20650;-76
2023/11/02 05:15:47;;;;;;;3.73;0.73;;;;;;;;;;5037324;28;20228;-75
2023/11/02 05:18:13;;;;;;;2.90;2.20;;;;;;;;;;5036716;28;20519;-77
2023/11/02 05:20:39;;;;;;;1.73;0.80;;;;;;;;;;5037097;28;20444;-76
2023/11/02 05:23:09;;;;;;;3.40;0.97;;;;;;;;;;5037763;28;20976;-78
2023/11/02 05:25:35;;;;;;;2.15;1.05;;;;;;;;;;5020021;28;20916;-77
2023/11/02 05:28:01;;;;;;;2.80;1.20;;;;;;;;;;5037376;28;20198;-79
2023/11/02 05:30:27;;;;;;;1.38;0.90;;;;;;;;;;5036954;28;20398;-78
2023/11/02 05:32:53;;;;;;;2.60;1.27;;;;;;;;;;5035803;28;20198;-79
2023/11/02 05:35:19;;;;;;;1.27;0.80;;;;;;;;;;5037733;28;20405;-77
2023/11/02 05:37:45;;;;;;;2.75;1.02;;;;;;;;;;5035303;28;20963;-76
2023/11/02 05:40:11;;;;;;;4.30;1.00;;;;;;;;;;5037104;28;20182;-76
2023/11/02 05:42:37;;;;;;;1.73;0.98;;;;;;;;;;5037540;28;20488;-78
2023/11/02 05:45:03;;;;;;;1.73;0.90;;;;;;;;;;5036197;28;20504;-77
2023/11/02 05:47:30;;;;;;;1.80;0.85;;;;;;;;;;5019155;28;20236;-77
2023/11/02 05:49:56;;;;;;;2.58;1.00;;;;;;;;;;5054105;28;20641;-79
2023/11/02 05:52:22;;;;;;;2.10;0.80;;;;;;;;;;5056672;28;20512;-77
2023/11/02 05:54:48;;;;;;;1.83;0.83;;;;;;;;;;5056490;28;20181;-75
2023/11/02 05:57:14;;;;;;;2.20;0.80;;;;;;;;;;5057432;28;20400;-76
2023/11/02 05:59:40;;;;;;;2.88;0.90;;;;;;;;;;5056009;28;20442;-76
2023/11/02 06:02:07;;;;;;;2.50;0.70;;;;;;;;;;5055843;28;20174;-76
2023/11/02 06:04:33;;;;;;;1.15;0.70;;;;;;;;;;5057640;28;20408;-76
2023/11/02 06:06:59;;;;;;;3.07;1.00;;;;;;;;;;5055774;28;20181;-78
2023/11/02 06:09:25;;;;;;;5.27;0.90;;;;;;;;;;5056673;28;20910;-78
2023/11/02 06:11:51;;;;;;;3.67;1.00;;;;;;;;;;5055744;28;20562;-83
2023/11/02 06:14:17;;;;;;;1.03;0.90;;;;;;;;;;5053706;28;20424;-79
2023/11/02 06:16:43;;;;;;;0.70;0.60;;;;;;;;;;5054983;28;20422;-76
2023/11/02 06:19:09;;;;;;;4.83;1.43;;;;;;;;;;5056759;28;20181;-77
2023/11/02 06:21:36;;;;;;;2.20;0.90;;;;;;;;;;5056940;28;20778;-76
2023/11/02 06:24:02;;;;;;;2.13;1.05;;;;;;;;;;5057175;28;20180;-78
2023/11/02 06:26:28;;;;;;;6.67;1.10;;;;;;;;;;5055284;28;20270;-79
2023/11/02 06:28:54;;;;;;;2.20;0.93;;;;;;;;;;5055220;28;20487;-77
2023/11/02 06:31:19;;;;;;;1.47;0.80;;;;;;;;;;5046105;28;20417;-77
2023/11/02 06:33:45;;;;;;;1.50;1.10;;;;;;;;;;5035341;28;20826;-76
2023/11/02 06:36:11;;;;;;;1.00;0.60;;;;;;;;;;5035001;28;20413;-76
2023/11/02 06:38:37;;;;;;;1.17;0.60;;;;;;;;;;5036382;28;20495;-77
2023/11/02 06:41:03;;;;;;;1.47;0.83;;;;;;;;;;5036895;28;20463;-78
2023/11/02 06:43:29;;;;;;;1.48;0.80;;;;;;;;;;5036480;28;20437;-79
2023/11/02 06:45:55;;;;;;;0.90;0.70;;;;;;;;;;5035738;28;20189;-77
2023/11/02 06:48:22;;;;;;;1.20;0.70;;;;;;;;;;5035234;28;20467;-76
2023/11/02 06:50:50;;;;;;;3.30;0.80;;;;;;;;;;5036284;28;20213;-77
2023/11/02 06:53:16;;;;;;;1.75;0.90;;;;;;;;;;5036737;28;20575;-76
2023/11/02 06:55:42;;;;;;;1.95;0.70;;;;;;;;;;5034747;28;20182;-79
2023/11/02 06:58:08;;;;;;;1.30;0.70;;;;;;;;;;5036367;28;20203;-78
2023/11/02 07:00:34;;;;;;;2.45;0.80;;;;;;;;;;5035874;28;20459;-79
2023/11/02 07:03:00;;;;;;;1.07;0.70;;;;;;;;;;5036653;28;20170;-79
2023/11/02 07:05:26;;;;;;;1.35;0.80;;;;;;;;;;5040372;28;20412;-78
2023/11/02 07:07:54;;;;;;;1.80;0.80;;;;;;;;;;5038961;28;20214;-79
2023/11/02 07:10:20;;;;;;;0.80;0.60;;;;;;;;;;5038814;28;20424;-78
2023/11/02 07:12:46;;;;;;;1.77;0.90;;;;;;;;;;5039527;28;20178;-79
2023/11/02 07:15:13;;;;;;;1.17;0.90;;;;;;;;;;5039161;28;20475;-79
2023/11/02 07:17:39;;;;;;;1.73;0.90;;;;;;;;;;5039912;28;20397;-79
2023/11/02 07:20:05;;;;;;;3.23;1.13;;;;;;;;;;5038523;28;20190;-79
2023/11/02 07:22:31;;;;;;;1.75;0.90;;;;;;;;;;5040229;28;20912;-77
2023/11/02 07:24:57;;;;;;;3.30;0.70;;;;;;;;;;5039445;28;20174;-76
2023/11/02 07:27:23;;;;;;;3.40;0.90;;;;;;;;;;5059471;28;20487;-76
2023/11/02 07:29:49;;;;;;;2.35;0.80;;;;;;;;;;5058610;28;20428;-76
2023/11/02 07:32:15;;;;;;;2.13;1.00;;;;;;;;;;5058783;28;20188;-76
2023/11/02 07:34:41;;;;;;;8.77;1.00;;;;;;;;;;5059102;28;20416;-76
2023/11/02 07:37:07;;;;;;;0.90;0.73;;;;;;;;;;5041986;28;20907;-76
2023/11/02 07:39:33;;;;;;;0.90;0.70;;;;;;;;;;5038064;28;20416;-76
2023/11/02 07:42:00;;;;;;;2.20;0.80;;;;;;;;;;5038405;28;20894;-76
2023/11/02 07:44:26;;;;;;;2.10;0.73;;;;;;;;;;5039712;28;20216;-77
2023/11/02 07:46:52;;;;;;;1.00;0.70;;;;;;;;;;5052787;28;20174;-77
2023/11/02 07:49:18;;;;;;;0.77;0.60;;;;;;;;;;5058094;28;20191;-76
2023/11/02 07:51:44;;;;;;;1.80;0.80;;;;;;;;;;5057965;28;20412;-79
2023/11/02 07:54:10;;;;;;;2.10;1.07;;;;;;;;;;5058876;28;20411;-76
2023/11/02 07:56:36;;;;;;;6.10;0.90;;;;;;;;;;5058411;28;20904;-77
2023/11/02 07:59:02;;;;;;;2.80;0.90;;;;;;;;;;5059795;28;20412;-76
2023/11/02 08:01:29;;;;;;;2.33;0.90;;;;;;;;;;5058946;28;20233;-77
2023/11/02 08:03:55;;;;;;;1.63;0.90;;;;;;;;;;5058176;28;20236;-77
2023/11/02 08:06:21;;;;;;;1.55;0.90;;;;;;;;;;5059079;28;20495;-77
2023/11/02 08:08:46;;;;;;;1.70;0.90;;;;;;;;;;5058813;28;20239;-76
2023/11/02 08:11:13;;;;;;;2.23;0.90;;;;;;;;;;5059119;28;20764;-77
2023/11/02 08:13:38;;;;;;;1.85;0.80;;;;;;;;;;5058926;28;20429;-77
2023/11/02 08:16:04;;;;;;;1.50;0.80;;;;;;;;;;5058285;28;20239;-79
2023/11/02 08:18:31;;;;;;;1.27;0.70;;;;;;;;;;5057674;28;20428;-80
2023/11/02 08:20:57;;;;;;;1.43;0.80;;;;;;;;;;5058471;28;20209;-77
2023/11/02 08:23:23;;;;;;;1.35;0.70;;;;;;;;;;5059627;28;20407;-79
2023/11/02 08:25:49;;;;;;;2.10;0.90;;;;;;;;;;5054225;28;20564;-77
2023/11/02 08:28:16;;;;;;;2.23;1.00;;;;;;;;;;5038615;28;20812;-77
2023/11/02 08:30:42;;;;;;;0.90;0.70;;;;;;;;;;5021115;28;20436;-77
2023/11/02 08:33:10;;;;;;;1.77;1.13;;;;;;;;;;5037906;28;20413;-82
2023/11/02 08:35:36;;;;;;;2.80;0.97;;;;;;;;;;5037416;28;20420;-77
2023/11/02 08:38:02;;;;;;;1.07;0.63;;;;;;;;;;5037357;28;20481;-78
2023/11/02 08:40:28;;;;;;;2.30;1.00;;;;;;;;;;5037597;28;20814;-77
2023/11/02 08:42:54;;;;;;;2.23;0.90;;;;;;;;;;5038122;28;20170;-77
2023/11/02 08:45:20;;;;;;;3.83;0.90;;;;;;;;;;5037400;28;20431;-78
2023/11/02 08:47:46;;;;;;;4.33;0.87;;;;;;;;;;5038740;28;20561;-77
2023/11/02 08:50:13;;;;;;;1.77;1.00;;;;;;;;;;5021101;28;20433;-77
2023/11/02 08:52:40;;;;;;;1.73;0.70;;;;;;;;;;5052256;28;20839;-78
2023/11/02 08:55:06;;;;;;;1.87;0.93;;;;;;;;;;5057866;28;20721;-80
2023/11/02 08:57:32;;;;;;;2.20;0.80;;;;;;;;;;5023008;28;20429;-77
2023/11/02 08:59:58;;;;;;;2.30;1.07;;;;;;;;;;5037751;28;20951;-76
2023/11/02 09:02:25;;;;;;;2.57;0.83;;;;;;;;;;5038609;28;20790;-76
2023/11/02 09:04:52;;;;;;;2.40;0.80;;;;;;;;;;5036908;28;20462;-77
2023/11/02 09:07:18;;;;;;;6.78;1.00;;;;;;;;;;5038066;28;20454;-77
2023/11/02 09:09:44;;;;;;;0.90;0.60;;;;;;;;;;5037977;28;20272;-78
2023/11/02 09:12:10;;;;;;;2.90;1.00;;;;;;;;;;5037946;28;20404;-78
2023/11/02 09:14:36;;;;;;;2.30;1.10;;;;;;;;;;5037008;28;20519;-79
2023/11/02 09:17:02;;;;;;;3.13;0.97;;;;;;;;;;5037463;28;21000;-78
2023/11/02 09:19:28;;;;;;;4.10;1.10;;;;;;;;;;5037795;28;20401;-77
2023/11/02 09:21:54;;;;;;;3.40;0.80;;;;;;;;;;5037211;28;20452;-78
2023/11/02 09:24:20;;;;;;;3.80;1.10;;;;;;;;;;5036122;28;21027;-78
2023/11/02 09:26:46;;;;;;;2.47;1.03;;;;;;;;;;5049573;28;20818;-78
2023/11/02 09:29:13;;;;;;;6.13;1.57;;;;;;;;;;5056204;28;20459;-77
2023/11/02 09:31:41;;;;;;;2.80;0.90;;;;;;;;;;5056859;28;20404;-78
2023/11/02 09:34:10;;;;;;;4.20;0.90;;;;;;;;;;5057005;28;20448;-78
2023/11/02 09:36:37;;;;;;;4.93;1.30;;;;;;;;;;5038693;28;20435;-79
2023/11/02 09:39:03;;;;;;;1.43;0.70;;;;;;;;;;5056424;28;20814;-82
2023/11/02 09:41:29;;;;;;;3.77;0.90;;;;;;;;;;5038369;28;20420;-82
2023/11/02 09:43:56;;;;;;;6.30;1.10;;;;;;;;;;5056788;28;20561;-81
2023/11/02 09:46:23;;;;;;;7.70;1.03;;;;;;;;;;5055792;28;20923;-78
2023/11/02 09:48:50;;;;;;;3.57;1.10;;;;;;;;;;5056353;28;20468;-78
2023/11/02 09:51:16;;;;;;;4.00;1.07;;;;;;;;;;5056970;28;20420;-79
2023/11/02 09:53:42;;;;;;;2.60;0.93;;;;;;;;;;5039002;28;20607;-78
2023/11/02 09:56:11;;;;;;;3.00;1.17;;;;;;;;;;5056047;28;20438;-79
2023/11/02 09:58:37;;;;;;;2.50;1.23;;;;;;;;;;5056570;28;20411;-80
2023/11/02 10:01:04;;;;;;;2.40;0.90;;;;;;;;;;5029231;28;20461;-78
2023/11/02 10:03:30;;;;;;;4.13;1.50;;;;;;;;;;5041448;28;20419;-79
2023/11/02 10:05:57;;;;;;;3.20;0.97;;;;;;;;;;5056339;28;20408;-84
2023/11/02 10:08:22;;;;;;;1.77;0.90;;;;;;;;;;5054680;28;20490;-80
2023/11/02 10:10:49;;;;;;;3.00;1.13;;;;;;;;;;5053751;28;20420;-82
2023/11/02 10:13:14;;;;;;;3.87;1.30;;;;;;;;;;5054405;28;20446;-81
2023/11/02 10:15:41;;;;;;;5.00;1.10;;;;;;;;;;5037603;28;20420;-79
2023/11/02 10:18:16;;;;;;;5.50;1.67;;;;;;;;;;5055648;28;20804;-84
2023/11/02 10:20:43;;;;;;;5.50;1.20;;;;;;;;;;5053706;28;20425;-79
2023/11/02 10:23:12;;;;;;;3.37;1.20;;;;;;;;;;5054192;28;20408;-82
2023/11/02 10:25:42;;;;;;;6.03;1.57;;;;;;;;;;5054720;28;20427;-80
2023/11/02 10:28:08;;;;;;;4.77;1.07;;;;;;;;;;5056487;28;20463;-78
2023/11/02 10:30:34;;;;;;;2.70;1.10;;;;;;;;;;5055376;28;20432;-81
2023/11/02 10:33:05;;;;;;;5.23;1.23;;;;;;;;;;5055474;28;20479;-81
2023/11/02 10:35:31;;;;;;;3.23;0.90;;;;;;;;;;5054227;28;20478;-85
2023/11/02 10:37:59;;;;;;;4.30;1.60;;;;;;;;;;5054810;28;20416;-79
2023/11/02 10:40:40;;;;;;;3.87;1.33;;;;;;;;;;5058380;28;20412;-80
2023/11/02 10:43:07;;;;;;;6.97;1.53;;;;;;;;;;5059757;28;20398;-80
2023/11/02 10:45:33;;;;;;;5.00;1.20;;;;;;;;;;5038622;28;20424;-80
2023/11/02 10:47:59;;;;;;;4.03;1.67;;;;;;;;;;5040112;28;20522;-79
2023/11/02 10:50:25;;;;;;;7.83;1.30;;;;;;;;;;5040391;28;20527;-79
2023/11/02 10:52:55;;;;;;;4.30;1.17;;;;;;;;;;5038750;28;20405;-80
2023/11/02 10:55:37;;;;;;;6.20;0.83;;;;;;;;;;5039010;28;20415;-80
2023/11/02 10:58:04;;;;;;;9.50;2.00;;;;;;;;;;5039019;28;20401;-82
2023/11/02 11:00:30;;;;;;;4.03;1.60;;;;;;;;;;5039368;28;20464;-78
2023/11/02 11:02:56;;;;;;;4.83;1.77;;;;;;;;;;5039526;28;20405;-78
2023/11/02 11:05:23;;;;;;;3.53;1.73;;;;;;;;;;5039560;28;20409;-81
2023/11/02 11:07:56;;;;;;;3.17;1.20;;;;;;;;;;5038316;28;20467;-78
2023/11/02 11:10:22;;;;;;;6.93;1.40;;;;;;;;;;5039657;28;20439;-80
2023/11/02 11:12:49;;;;;;;7.87;1.63;;;;;;;;;;5039265;28;20424;-78
2023/11/02 11:15:15;;;;;;;3.27;1.17;;;;;;;;;;5039103;28;20471;-86
2023/11/02 11:17:42;;;;;;;4.23;1.30;;;;;;;;;;5038233;28;20416;-78
2023/11/02 11:20:09;;;;;;;3.10;1.40;;;;;;;;;;5039461;28;20420;-77
2023/11/02 11:22:35;;;;;;;5.83;1.40;;;;;;;;;;5039984;28;20428;-78
2023/11/02 11:25:04;;;;;;;8.43;1.73;;;;;;;;;;5040148;28;20538;-78
2023/11/02 11:27:36;;;;;;;3.90;1.00;;;;;;;;;;5039790;28;20452;-77
2023/11/02 11:30:04;;;;;;;6.83;1.20;;;;;;;;;;5039267;28;20462;-78
2023/11/02 11:32:37;;;;;;;5.13;1.07;;;16.80;99.90;;;;;;5059197;28;20797;-82
2023/11/02 11:35:12;;;;;;;4.30;1.23;;;16.50;99.90;;;;;;5057403;28;20922;-82
2023/11/02 11:40:21;;;;;;;3.63;1.30;;;;;;;;;;5058793;28;20392;-80
2023/11/02 11:42:56;;;;;;;5.30;1.60;;;;;;;;;;5057510;28;20757;-79
2023/11/02 11:45:26;;;;;;;2.50;1.33;;;;;;;;;;5058786;28;20468;-81
2023/11/02 11:47:56;;;;;;;6.60;1.23;;;;;;;;;;5058018;28;20455;-83
2023/11/02 11:50:35;;;;;;;8.67;1.80;;;;;;;;;;5055800;28;20439;-81
2023/11/02 11:53:20;;;;;;;3.93;1.50;;;;;;;;;;5057131;28;20778;-80
2023/11/02 11:55:50;;;;;;;4.20;1.67;;;;;;;;;;5056744;28;20408;-78
2023/11/02 11:58:17;;;;;;;3.43;1.33;;;;;;;;;;5058256;28;20485;-82
2023/11/02 12:00:49;;;;;;;6.90;1.70;;;;;;;;;;5056876;28;20474;-81
2023/11/02 12:03:39;;;;;;;3.33;1.73;;;;;;;;;;5056961;28;20415;-79
2023/11/02 12:06:15;;;;;;;2.73;1.53;;;;;;;;;;5056288;28;20820;-85
2023/11/02 12:08:48;;;;;;;3.90;1.90;;;;;;;;;;5042051;28;20559;-79
2023/11/02 12:11:26;;;;;;;4.93;1.43;;;;;;;;;;5042126;28;20424;-78
2023/11/02 12:13:55;;;;;;;2.33;0.97;;;;;;;;;;5058545;28;20400;-79
2023/11/02 12:16:21;;;;;;;8.97;1.77;;;;;;;;;;5045446;28;20421;-78
2023/11/02 12:18:51;;;;;;;6.40;2.20;;;;;;;;;;5037811;28;20464;-81
2023/11/02 12:21:19;;;;;;;4.43;1.80;;;;;;;;;;5036413;28;20928;-83
2023/11/02 12:23:45;;;;;;;4.00;1.63;;;;;;;;;;5036040;28;20433;-82
2023/11/02 12:26:11;;;;;;;5.07;1.57;;;;;;;;;;5036474;28;20397;-78
2023/11/02 12:28:41;;;;;;;4.63;1.13;;;;;;;;;;5047156;28;20959;-80
2023/11/02 12:31:08;;;;;;;4.60;1.10;;;;;;;;;;5056703;28;20489;-78
2023/11/02 12:33:35;;;;;;;5.50;1.90;;;;;;;;;;5052267;28;20402;-78
2023/11/02 12:36:01;;;;;;;3.30;1.23;;;;;;;;;;5037994;28;20425;-80
2023/11/02 12:38:47;;;;;;;9.10;1.93;;;;;;;;;;5037864;28;20412;-79
2023/11/02 12:41:14;;;;;;;6.33;1.80;;;;;;;;;;5035847;28;20399;-79
2023/11/02 12:43:40;;;;;;;6.17;2.40;;;;;;;;;;5037608;28;20424;-78
2023/11/02 12:46:08;;;;;;;4.00;1.37;;;;;;;;;;5041056;28;20435;-80
2023/11/02 12:48:36;;;;;;;5.23;1.47;;;;;;;;;;5056101;28;20886;-80
2023/11/02 12:51:16;;;;;;;7.70;1.67;;;;;;;;;;5056942;28;20483;-80
2023/11/02 12:53:42;;;;;;;8.47;2.03;;;;;;;;;;5056134;28;20458;-81
2023/11/02 12:56:09;;;;;;;6.20;1.60;;;;;;;;;;5056783;28;20941;-81
2023/11/02 12:58:36;;;;;;;5.40;1.90;;;;;;;;;;5055473;28;20399;-83
2023/11/02 13:01:02;;;;;;;3.70;1.60;;;;;;;;;;5055939;28;20462;-82
2023/11/02 13:03:28;;;;;;;5.93;1.33;;;;;;;;;;5056857;28;20439;-81
2023/11/02 13:05:55;;;;;;;4.80;1.33;;;;;;;;;;5056728;28;20419;-80
2023/11/02 13:08:21;;;;;;;3.63;1.53;;;;;;;;;;5056779;28;20456;-83
2023/11/02 13:10:48;;;;;;;6.43;1.70;;;;;;;;;;5056644;28;20405;-82
2023/11/02 13:13:14;;;;;;;7.60;1.80;;;;;;;;;;5056056;28;20415;-82
2023/11/02 13:15:40;;;;;;;3.80;2.30;;;;;;;;;;5055874;28;20391;-84
2023/11/02 13:18:07;;;;;;;3.57;1.43;;;;;;;;;;5054454;28;20435;-83
2023/11/02 13:20:33;;;;;;;6.33;2.50;;;;;;;;;;5038304;28;20439;-83
2023/11/02 13:23:01;;;;;;;4.53;1.60;;;;;;;;;;5056148;28;20408;-80
2023/11/02 13:25:27;;;;;;;5.33;1.57;;;;;;;;;;5056150;28;20855;-81
2023/11/02 13:27:55;;;;;;;3.50;1.33;;;;;;;;;;5038916;28;20464;-81
2023/11/02 13:30:21;;;;;;;5.77;1.47;;;;;;;;;;5048444;28;20420;-79
2023/11/02 13:32:49;;;;;;;4.07;1.60;;;;;;;;;;5036456;28;20401;-85
2023/11/02 13:35:15;;;;;;;6.97;1.77;;;;;;;;;;5036088;28;20419;-81
2023/11/02 13:37:41;;;;;;;5.83;1.70;;;;;;;;;;5015403;28;20491;-78
2023/11/02 13:40:12;;;;;;;5.30;1.70;;;;;;;;;;5015455;28;20437;-85
2023/11/02 13:42:39;;;;;;;4.80;1.87;;;;;;;;;;5015840;28;20462;-84
2023/11/02 13:45:08;;;;;;;3.90;2.10;;;;;;;;;;5015051;28;20920;-84
2023/11/02 13:47:35;;;;;;;4.87;1.27;;;;;;;;;;5015153;28;20559;-81
2023/11/02 13:50:03;;;;;;;3.60;1.20;;;;;;;;;;5015048;28;20449;-82
2023/11/02 13:52:31;;;;;;;3.87;1.77;;;;;;;;;;5014531;28;20800;-81
2023/11/02 13:54:57;;;;;;;9.27;2.00;;;;;;;;;;5014748;28;20417;-87
2023/11/02 13:57:23;;;;;;;4.50;1.50;;;;;;;;;;5015297;28;20436;-83
2023/11/02 13:59:49;;;;;;;3.90;1.40;;;;;;;;;;5015683;28;20826;-82
2023/11/02 14:02:17;;;;;;;4.50;1.53;;;;;;;;;;5014482;28;20500;-81
2023/11/02 14:04:43;;;;;;;7.53;1.63;;;;;;;;;;5014596;28;20418;-80
2023/11/02 14:07:10;;;;;;;4.20;1.57;;;;;;;;;;5016041;28;20840;-79
2023/11/02 14:09:35;;;;;;;3.00;1.17;;;;;;;;;;5016744;28;20413;-81
2023/11/02 14:12:04;;;;;;;5.60;1.60;;;;;;;;;;5014231;28;20794;-82
2023/11/02 14:14:31;;;;;;;3.07;1.53;;;;;;;;;;5016511;28;20482;-81
2023/11/02 14:16:57;;;;;;;7.33;1.97;;;;;;;;;;5015688;28;20414;-81
2023/11/02 14:19:23;;;;;;;4.87;1.60;;;;;;;;;;5023046;28;20446;-83
2023/11/02 14:21:49;;;;;;;5.30;1.80;;;;;;;;;;5022235;28;20429;-78
2023/11/02 14:24:15;;;;;;;7.13;1.90;;;;;;;;;;5035737;28;20495;-79
2023/11/02 14:26:43;;;;;;;4.10;1.83;;;;;;;;;;5035530;28;20455;-88
2023/11/02 14:29:09;;;;;;;6.17;1.83;;;;;;;;;;5034172;28;20534;-80
2023/11/02 14:31:35;;;;;;;7.50;1.70;;;;;;;;;;5034765;28;20476;-81
2023/11/02 14:34:02;;;;;;;6.47;2.00;;;;;;;;;;5033843;28;20432;-82
2023/11/02 14:36:28;;;;;;;5.33;2.10;;;;;;;;;;5033413;28;20401;-86
2023/11/02 14:38:54;;;;;;;7.40;1.90;;;;;;;;;;5034492;28;20413;-86
2023/11/02 14:41:21;;;;;;;9.10;2.07;;;;;;;;;;5033508;28;20413;-84
2023/11/02 14:43:47;;;;;;;5.60;1.80;;;;;;;;;;5039731;28;20505;-85
2023/11/02 14:46:13;;;;;;;5.83;2.30;;;;;;;;;;5054054;28;20810;-83
2023/11/02 14:48:39;;;;;;;5.10;2.43;;;;;;;;;;5053685;28;20525;-83
2023/11/02 14:51:05;;;;;;;7.67;2.03;;;;;;;;;;5053105;28;20431;-83
2023/11/02 14:53:32;;;;;;;6.53;1.83;;;;;;;;;;5054934;28;20814;-84
2023/11/02 14:55:58;;;;;;;6.77;1.10;;;;;;;;;;5055014;28;20405;-83
2023/11/02 14:58:26;;;;;;;6.43;2.50;;;;;;;;;;5054371;28;20408;-83